Time;durP1;ratioP1;P1;durP2;ratioP2;P2;SDS_P1;SDS_P2;PMS_P1;PMS_P2;Temp;Humidity;BMP_temperature;BMP_pressure;BME280_temperature;BME280_humidity;BME280_pressure;Samples;Min_cycle;Max_cycle;Signal;HPM_P1;HPM_P2
2024/02/03 11:23:50;0.00;0.00;0.62;0.00;0.00;0.62;4.63;3.20;;;15.30;29.00;;;;;;1578776;74;20396;-68
2024/02/03 11:26:37;0.00;0.00;0.62;0.00;0.00;0.62;3.80;2.83;;;16.50;28.50;;;;;;2263009;61;20450;-66
2024/02/03 11:29:21;0.00;0.00;0.62;0.00;0.00;0.62;4.93;3.77;;;16.70;28.40;;;;;;2263913;61;20399;-67
2024/02/03 11:32:07;0.00;0.00;0.62;0.00;0.00;0.62;4.80;3.63;;;16.90;28.40;;;;;;2424910;53;20396;-69
2024/02/03 11:35:00;0.00;0.00;0.62;0.00;0.00;0.62;5.00;3.63;;;17.00;28.30;;;;;;2263600;61;21117;-67
2024/02/03 11:37:44;0.00;0.00;0.62;0.00;0.00;0.62;6.23;4.17;;;17.10;28.30;;;;;;2263863;61;20360;-67
2024/02/03 11:40:31;0.00;0.00;0.62;0.00;0.00;0.62;5.37;4.30;;;17.20;28.30;;;;;;2260462;61;20930;-67
2024/02/03 11:43:18;0.00;0.00;0.62;0.00;0.00;0.62;5.87;5.13;;;17.20;28.30;;;;;;2262786;61;20772;-67
2024/02/03 11:46:09;0.00;0.00;0.62;0.00;0.00;0.62;7.27;4.90;;;17.40;28.40;;;;;;2263460;61;20399;-70
2024/02/03 11:48:58;0.00;0.00;0.62;0.00;0.00;0.62;7.37;4.53;;;17.40;28.30;;;;;;2263863;61;20517;-68
2024/02/03 11:51:43;0.00;0.00;0.62;0.00;0.00;0.62;5.60;4.20;;;17.50;28.40;;;;;;2500802;53;20950;-73
2024/02/03 11:54:28;0.00;0.00;0.62;0.00;0.00;0.62;6.23;4.50;;;17.60;28.40;;;;;;2263844;61;20418;-71
2024/02/03 11:57:14;0.00;0.00;0.62;0.00;0.00;0.62;5.20;4.50;;;17.70;28.40;;;;;;2263132;61;20364;-70
2024/02/03 11:59:59;0.00;0.00;0.62;0.00;0.00;0.62;6.17;4.83;;;17.80;28.40;;;;;;2263428;61;21073;-72
2024/02/03 12:02:44;0.00;0.00;0.62;0.00;0.00;0.62;5.40;4.20;;;17.80;28.40;;;;;;2265762;61;20403;-69
2024/02/03 12:05:29;0.00;0.00;0.62;0.00;0.00;0.62;5.60;4.20;;;18.00;28.50;;;;;;2263162;61;20364;-72
2024/02/03 12:08:13;0.00;0.00;0.62;0.00;0.00;0.62;4.93;3.67;;;18.00;28.40;;;;;;2263090;61;20364;-66
2024/02/03 12:10:58;0.00;0.00;0.62;0.00;0.00;0.62;7.37;4.80;;;18.00;28.40;;;;;;2263435;61;20526;-67
2024/02/03 12:13:46;0.00;0.00;0.62;0.00;0.00;0.62;5.50;4.80;;;18.10;28.40;;;;;;2263090;61;20473;-67
2024/02/03 12:16:32;0.00;0.00;0.62;0.00;0.00;0.62;5.50;4.10;;;18.20;28.50;;;;;;2263482;61;20494;-66
2024/02/03 12:19:16;0.00;0.00;0.62;0.00;0.00;0.62;6.23;4.30;;;18.30;28.50;;;;;;2262274;61;20360;-68
2024/02/03 12:22:01;0.00;0.00;0.62;0.00;0.00;0.62;5.83;4.70;;;18.30;28.50;;;;;;2306487;57;20493;-69
2024/02/03 12:24:46;0.00;0.00;0.62;0.00;0.00;0.62;5.37;4.30;;;18.40;28.50;;;;;;2264648;61;20399;-67
2024/02/03 12:27:30;0.00;0.00;0.62;0.00;0.00;0.62;5.53;4.43;;;18.40;28.50;;;;;;2261796;61;20891;-68
2024/02/03 12:30:18;0.00;0.00;0.62;0.00;0.00;0.62;6.70;4.30;;;18.50;28.50;;;;;;2260310;61;20419;-64
2024/02/03 12:33:04;0.00;0.00;0.62;0.00;0.00;0.62;5.67;4.30;;;18.60;28.60;;;;;;2260520;61;20373;-66
2024/02/03 12:35:48;0.00;0.00;0.62;0.00;0.00;0.62;5.73;4.47;;;18.60;28.50;;;;;;2260550;61;20361;-65
2024/02/03 12:38:33;0.00;0.00;0.62;0.00;0.00;0.62;6.00;4.57;;;18.70;28.50;;;;;;2260690;61;20841;-67
2024/02/03 12:41:17;0.00;0.00;0.62;0.00;0.00;0.62;4.97;3.87;;;18.80;28.50;;;;;;2261551;61;20418;-66
2024/02/03 12:44:02;0.00;0.00;0.62;0.00;0.00;0.62;4.40;3.70;;;18.80;28.50;;;;;;2262529;61;20427;-64
2024/02/03 12:46:47;0.00;0.00;0.62;0.00;0.00;0.62;5.63;4.23;;;18.90;28.50;;;;;;2264563;61;20364;-68
2024/02/03 12:49:32;0.00;0.00;0.62;0.00;0.00;0.62;7.13;5.00;;;19.00;28.60;;;;;;2264163;61;20791;-68
2024/02/03 12:52:16;0.00;0.00;0.62;0.00;0.00;0.62;4.57;3.73;;;19.00;28.60;;;;;;2264648;61;20372;-70
2024/02/03 12:55:02;0.00;0.00;0.62;0.00;0.00;0.62;5.23;4.10;;;19.10;28.60;;;;;;2264453;61;20473;-67
2024/02/03 12:57:47;0.00;0.00;0.62;0.00;0.00;0.62;4.93;4.13;;;19.10;28.60;;;;;;2264565;61;20387;-66
2024/02/03 13:00:32;0.00;0.00;0.62;0.00;0.00;0.62;6.33;4.47;;;19.20;28.60;;;;;;2264422;61;20387;-68
2024/02/03 13:03:17;0.00;0.00;0.62;0.00;0.00;0.62;4.73;3.87;;;19.20;28.50;;;;;;2264509;61;20439;-67
2024/02/03 13:06:02;0.00;0.00;0.62;0.00;0.00;0.62;6.20;4.97;;;19.30;28.60;;;;;;2264846;61;20377;-67
2024/02/03 13:08:47;0.00;0.00;0.62;0.00;0.00;0.62;5.17;4.00;;;19.30;28.60;;;;;;2264205;61;20364;-68
2024/02/03 13:11:31;0.00;0.00;0.62;0.00;0.00;0.62;5.10;3.70;;;19.40;28.60;;;;;;2264072;61;20890;-73
2024/02/03 13:14:16;0.00;0.00;0.62;0.00;0.00;0.62;4.83;3.70;;;19.50;28.60;;;;;;2265140;61;20399;-70
2024/02/03 13:17:01;0.00;0.00;0.62;0.00;0.00;0.62;4.83;3.83;;;19.50;28.60;;;;;;2265696;61;20363;-71
2024/02/03 13:19:47;0.00;0.00;0.62;0.00;0.00;0.62;5.00;3.90;;;19.50;28.50;;;;;;2267791;61;20761;-73
2024/02/03 13:22:31;0.00;0.00;0.62;0.00;0.00;0.62;4.33;3.60;;;19.60;28.50;;;;;;2265721;61;20476;-74
2024/02/03 13:25:16;0.00;0.00;0.62;0.00;0.00;0.62;4.60;3.70;;;19.60;28.50;;;;;;2399720;39;20404;-69
2024/02/03 13:28:00;0.00;0.00;0.62;0.00;0.00;0.62;5.30;3.67;;;19.70;28.50;;;;;;2261294;61;20919;-74
2024/02/03 13:30:45;0.00;0.00;0.62;0.00;0.00;0.62;5.00;3.60;;;19.70;28.50;;;;;;2267012;61;20946;-74
2024/02/03 13:33:30;0.00;0.00;0.62;0.00;0.00;0.62;5.33;3.50;;;19.70;28.50;;;;;;2259279;61;20465;-76
2024/02/03 13:36:17;0.00;0.00;0.62;0.00;0.00;0.62;5.00;3.40;;;19.80;28.50;;;;;;2263848;61;20373;-72
2024/02/03 13:39:02;0.00;0.00;0.62;0.00;0.00;0.62;4.77;3.60;;;19.80;28.50;;;;;;2263318;61;20365;-75
2024/02/03 13:41:49;0.00;0.00;0.62;0.00;0.00;0.62;4.30;3.43;;;19.90;28.50;;;;;;2262489;61;20385;-72
2024/02/03 13:44:35;0.00;0.00;0.62;0.00;0.00;0.62;4.87;3.77;;;19.90;28.50;;;;;;2263400;61;20455;-69
2024/02/03 13:47:19;0.00;0.00;0.62;0.00;0.00;0.62;5.63;3.80;;;20.00;28.50;;;;;;2260325;61;20404;-69
2024/02/03 13:50:05;0.00;0.00;0.62;0.00;0.00;0.62;4.93;3.43;;;20.00;28.50;;;;;;2260709;61;20457;-67
2024/02/03 13:52:51;0.00;0.00;0.62;0.00;0.00;0.62;5.90;4.20;;;20.10;28.50;;;;;;2260801;61;20365;-68
2024/02/03 13:55:35;0.00;0.00;0.62;0.00;0.00;0.62;3.77;3.13;;;20.10;28.40;;;;;;2260502;61;20922;-69
2024/02/03 13:58:20;0.00;0.00;0.62;0.00;0.00;0.62;5.03;3.70;;;20.10;28.40;;;;;;2260071;61;20364;-68
2024/02/03 14:01:04;0.00;0.00;0.62;0.00;0.00;0.62;4.07;3.27;;;20.20;28.50;;;;;;2260394;61;20361;-67
2024/02/03 14:03:49;0.00;0.00;0.62;0.00;0.00;0.62;4.67;3.33;;;20.20;28.40;;;;;;2260298;61;20381;-69
2024/02/03 14:06:33;0.00;0.00;0.62;0.00;0.00;0.62;4.40;3.50;;;20.30;29.00;;;;;;2260544;61;20380;-68
2024/02/03 14:09:19;0.00;0.00;0.62;0.00;0.00;0.62;3.90;3.03;;;20.30;28.40;;;;;;2260366;61;20392;-66
2024/02/03 14:12:05;0.00;0.00;0.62;0.00;0.00;0.62;5.43;3.50;;;20.40;28.40;;;;;;2260091;61;20774;-70
2024/02/03 14:14:49;0.00;0.00;0.62;0.00;0.00;0.62;4.60;3.43;;;20.40;28.40;;;;;;2260855;61;20425;-69
2024/02/03 14:17:34;0.00;0.00;0.62;0.00;0.00;0.62;5.43;3.13;;;20.40;28.40;;;;;;2260327;61;20360;-66
2024/02/03 14:20:18;0.00;0.00;0.62;0.00;0.00;0.62;4.63;3.50;;;20.50;28.40;;;;;;2260858;61;20408;-67
2024/02/03 14:23:04;0.00;0.00;0.62;0.00;0.00;0.62;4.53;3.10;;;20.50;28.40;;;;;;2260123;61;20384;-67
2024/02/03 14:25:50;0.00;0.00;0.62;0.00;0.00;0.62;4.43;3.20;;;20.50;28.40;;;;;;2260438;61;20895;-67
2024/02/03 14:28:35;0.00;0.00;0.62;0.00;0.00;0.62;6.07;3.30;;;20.50;28.40;;;;;;2259952;61;20369;-66
2024/02/03 14:31:20;0.00;0.00;0.62;0.00;0.00;0.62;7.80;3.77;;;20.50;28.40;;;;;;2260608;61;20368;-70
2024/02/03 14:34:05;0.00;0.00;0.62;0.00;0.00;0.62;3.60;2.53;;;20.60;28.40;;;;;;2260292;61;20432;-68
2024/02/03 14:36:50;0.00;0.00;0.62;0.00;0.00;0.62;4.00;3.03;;;20.60;28.40;;;;;;2260625;61;20794;-71
2024/02/03 14:39:34;0.00;0.00;0.62;0.00;0.00;0.62;6.37;3.37;;;20.60;28.40;;;;;;2259886;61;20460;-68
2024/02/03 14:42:20;0.00;0.00;0.62;0.00;0.00;0.62;5.30;2.73;;;20.70;28.40;;;;;;2260285;61;20393;-66
2024/02/03 14:45:06;0.00;0.00;0.62;0.00;0.00;0.62;9.13;2.97;;;20.70;28.40;;;;;;2259813;61;20927;-69
2024/02/03 14:47:51;0.00;0.00;0.62;0.00;0.00;0.62;3.63;2.43;;;20.80;28.40;;;;;;2260139;61;20373;-70
2024/02/03 14:50:36;0.00;0.00;0.62;0.00;0.00;0.62;4.23;2.60;;;20.80;28.90;;;;;;2260690;61;20399;-69
2024/02/03 14:53:21;0.00;0.00;0.62;0.00;0.00;0.62;5.87;3.20;;;20.80;28.30;;;;;;2262090;61;20384;-70
2024/02/03 14:56:07;0.00;0.00;0.62;0.00;0.00;0.62;4.00;2.90;;;20.80;28.30;;;;;;2264841;61;20385;-71
2024/02/03 14:58:52;0.00;0.00;0.62;0.00;0.00;0.62;5.13;2.83;;;20.80;28.30;;;;;;2264795;61;20369;-69
2024/02/03 15:01:37;0.00;0.00;0.62;0.00;0.00;0.62;4.70;3.10;;;20.90;28.40;;;;;;2264389;61;20527;-69
2024/02/03 15:04:21;0.00;0.00;0.62;0.00;0.00;0.62;4.30;3.37;;;20.90;28.30;;;;;;2264563;61;20388;-69
2024/02/03 15:07:06;0.00;0.00;0.62;0.00;0.00;0.62;4.57;3.33;;;20.90;28.30;;;;;;2264094;61;20396;-69
2024/02/03 15:09:51;0.00;0.00;0.62;0.00;0.00;0.62;4.77;3.07;;;20.90;28.30;;;;;;2264486;61;20361;-69
2024/02/03 15:12:35;0.00;0.00;0.62;0.00;0.00;0.62;4.50;3.53;;;21.00;28.30;;;;;;2263543;61;20450;-70
2024/02/03 15:15:21;0.00;0.00;0.62;0.00;0.00;0.62;6.63;3.60;;;21.00;28.30;;;;;;2264651;61;20368;-69
2024/02/03 15:18:06;0.00;0.00;0.62;0.00;0.00;0.62;3.63;2.90;;;21.00;28.20;;;;;;2265218;61;20424;-69
2024/02/03 15:20:51;0.00;0.00;0.62;0.00;0.00;0.62;5.03;3.70;;;21.00;28.20;;;;;;2265016;61;21102;-70
2024/02/03 15:23:36;0.00;0.00;0.62;0.00;0.00;0.62;4.37;2.93;;;21.10;28.20;;;;;;2263784;61;20376;-69
2024/02/03 15:26:21;0.00;0.00;0.62;0.00;0.00;0.62;3.47;2.50;;;21.10;28.10;;;;;;2261037;61;20457;-69
2024/02/03 15:29:05;0.00;0.00;0.62;0.00;0.00;0.62;5.77;3.30;;;21.10;28.10;;;;;;2261760;61;20393;-70
2024/02/03 15:31:52;0.00;0.00;0.62;0.00;0.00;0.62;3.50;2.73;;;21.10;28.10;;;;;;2260616;61;20439;-69
2024/02/03 15:34:36;0.00;0.00;0.62;0.00;0.00;0.62;4.53;3.17;;;21.10;28.00;;;;;;2274143;39;20455;-70
2024/02/03 15:37:21;0.00;0.00;0.62;0.00;0.00;0.62;4.93;3.80;;;21.10;28.00;;;;;;2261565;61;20454;-69
2024/02/03 15:40:07;0.00;0.00;0.62;0.00;0.00;0.62;4.03;3.23;;;21.20;28.00;;;;;;2258014;61;20877;-69
2024/02/03 15:42:52;0.00;0.00;0.62;0.00;0.00;0.62;6.37;3.10;;;21.20;28.00;;;;;;2256055;61;20420;-69
2024/02/03 15:45:37;0.00;0.00;0.62;0.00;0.00;0.62;4.37;3.00;;;21.20;27.90;;;;;;2252333;61;20394;-69
2024/02/03 15:48:24;0.00;0.00;0.62;0.00;0.00;0.62;3.83;2.67;;;21.20;27.90;;;;;;2254732;61;20433;-68
2024/02/03 15:51:09;0.00;0.00;0.62;0.00;0.00;0.62;6.00;4.00;;;21.20;27.90;;;;;;2254743;61;20430;-69
2024/02/03 15:53:54;0.00;0.00;0.62;0.00;0.00;0.62;5.57;4.00;;;21.20;27.80;;;;;;2251835;61;20949;-69
2024/02/03 15:56:39;0.00;0.00;0.62;0.00;0.00;0.62;4.20;3.33;;;21.30;27.90;;;;;;2252326;61;20359;-67
2024/02/03 15:59:24;0.00;0.00;0.62;0.00;0.00;0.62;5.50;3.43;;;21.30;27.90;;;;;;2252797;61;20371;-67
2024/02/03 16:02:09;0.00;0.00;0.62;0.00;0.00;0.62;5.07;3.90;;;21.30;27.90;;;;;;2252207;61;20363;-68
2024/02/03 16:04:55;0.00;0.00;0.62;0.00;0.00;0.62;4.80;3.20;;;21.30;27.90;;;;;;2252567;61;20945;-69
2024/02/03 16:07:41;0.00;0.00;0.62;0.00;0.00;0.62;5.23;3.60;;;21.30;27.90;;;;;;2252590;61;20410;-68
2024/02/03 16:10:26;0.00;0.00;0.62;0.00;0.00;0.62;5.80;3.67;;;21.30;27.90;;;;;;2255188;61;20379;-71
2024/02/03 16:13:14;0.00;0.00;0.62;0.00;0.00;0.62;5.73;3.50;;;21.30;27.90;;;;;;2276294;40;21052;31
2024/02/03 16:15:59;0.00;0.00;0.62;0.00;0.00;0.62;6.13;3.90;;;21.30;27.80;;;;;;2261492;61;20429;-68
2024/02/03 16:18:44;0.00;0.00;0.62;0.00;0.00;0.62;7.07;3.23;;;21.30;27.80;;;;;;2257577;61;20396;-68
2024/02/03 16:21:29;0.00;0.00;0.62;0.00;0.00;0.62;6.30;3.63;;;21.30;27.80;;;;;;2257488;61;20366;-69
2024/02/03 16:24:14;0.00;0.00;0.62;0.00;0.00;0.62;5.03;3.20;;;21.40;27.90;;;;;;2256109;61;20389;-68
2024/02/03 16:27:00;0.00;0.00;0.62;0.00;0.00;0.62;3.80;3.17;;;21.40;27.90;;;;;;2257207;61;20373;-69
2024/02/03 16:29:44;0.00;0.00;0.62;0.00;0.00;0.62;4.50;3.43;;;21.40;27.90;;;;;;2257304;61;20568;-68
2024/02/03 16:32:29;0.00;0.00;0.62;0.00;0.00;0.62;4.43;3.20;;;21.40;27.80;;;;;;2260347;61;20920;-69
2024/02/03 16:35:13;0.00;0.00;0.62;0.00;0.00;0.62;5.07;3.43;;;21.40;27.80;;;;;;2260956;61;20930;-68
2024/02/03 16:38:00;0.00;0.00;0.62;0.00;0.00;0.62;5.83;3.83;;;21.40;27.80;;;;;;2260571;61;20448;-69
2024/02/03 16:40:44;0.00;0.00;0.62;0.00;0.00;0.62;7.17;3.43;;;21.40;27.80;;;;;;2260833;61;21039;-68
2024/02/03 16:43:29;0.00;0.00;0.62;0.00;0.00;0.62;6.40;3.33;;;21.40;27.80;;;;;;2260640;61;20944;-71
2024/02/03 16:46:13;0.00;0.00;0.62;0.00;0.00;0.62;6.17;3.50;;;21.40;27.80;;;;;;2259970;61;20515;-69
2024/02/03 16:48:59;0.00;0.00;0.62;0.00;0.00;0.62;5.23;4.00;;;21.50;27.90;;;;;;2255257;61;20360;-68
2024/02/03 16:51:44;0.00;0.00;0.62;0.00;0.00;0.62;3.93;3.30;;;21.40;27.80;;;;;;2257223;61;20926;-73
2024/02/03 16:54:30;0.00;0.00;0.62;0.00;0.00;0.62;5.43;3.73;;;21.50;27.90;;;;;;2262386;55;20396;-67
2024/02/03 16:57:15;0.00;0.00;0.62;0.00;0.00;0.62;5.93;3.60;;;21.50;27.90;;;;;;2264375;61;20380;-68
2024/02/03 17:00:00;0.00;0.00;0.62;0.00;0.00;0.62;5.93;3.77;;;21.50;27.90;;;;;;2263950;61;20414;-67
2024/02/03 17:02:44;0.00;0.00;0.62;0.00;0.00;0.62;4.63;3.13;;;21.50;28.00;;;;;;2259798;61;20443;-68
2024/02/03 17:05:29;0.00;0.00;0.62;0.00;0.00;0.62;5.60;3.90;;;21.50;28.00;;;;;;2260024;61;20389;-66
2024/02/03 17:08:16;0.00;0.00;0.62;0.00;0.00;0.62;5.17;3.03;;;21.50;28.00;;;;;;2260955;61;20415;-65
2024/02/03 17:11:02;0.00;0.00;0.62;0.00;0.00;0.62;4.50;3.60;;;21.50;28.00;;;;;;2264301;61;20372;-67
2024/02/03 17:13:46;0.00;0.00;0.62;0.00;0.00;0.62;6.70;3.30;;;21.60;28.00;;;;;;2263789;61;20598;-66
2024/02/03 17:16:31;0.00;0.00;0.62;0.00;0.00;0.62;5.20;3.57;;;21.60;28.00;;;;;;2260744;61;20361;-65
2024/02/03 17:19:17;0.00;0.00;0.62;0.00;0.00;0.62;5.07;3.30;;;21.60;27.90;;;;;;2260019;61;20476;-66
2024/02/03 17:22:01;0.00;0.00;0.62;0.00;0.00;0.62;5.30;2.87;;;21.60;27.90;;;;;;2259769;61;20360;-66
2024/02/03 17:24:46;0.00;0.00;0.62;0.00;0.00;0.62;5.27;3.47;;;21.60;27.90;;;;;;2508416;53;20381;-66
2024/02/03 17:27:32;0.00;0.00;0.62;0.00;0.00;0.62;4.60;3.03;;;21.60;27.90;;;;;;2260126;61;20880;-66
2024/02/03 17:30:17;0.00;0.00;0.62;0.00;0.00;0.62;10.10;3.80;;;21.60;27.90;;;;;;2259764;61;20508;-66
2024/02/03 17:33:02;0.00;0.00;0.62;0.00;0.00;0.62;4.50;2.80;;;21.60;27.90;;;;;;2259701;61;20380;-66
2024/02/03 17:35:47;0.00;0.00;0.62;0.00;0.00;0.62;4.40;3.40;;;21.60;27.80;;;;;;2259839;61;21065;-66
2024/02/03 17:38:32;0.00;0.00;0.62;0.00;0.00;0.62;4.57;3.03;;;21.60;27.80;;;;;;2259660;61;20411;-66
2024/02/03 17:41:16;0.00;0.00;0.62;0.00;0.00;0.62;4.50;3.03;;;21.60;27.80;;;;;;2259958;61;20395;-66
2024/02/03 17:44:02;0.00;0.00;0.62;0.00;0.00;0.62;4.70;3.50;;;21.70;27.80;;;;;;2259704;61;20492;-66
2024/02/03 17:46:46;0.00;0.00;0.62;0.00;0.00;0.62;6.17;3.20;;;21.70;27.80;;;;;;2260018;61;20404;-66
2024/02/03 17:49:31;0.00;0.00;0.62;0.00;0.00;0.62;5.73;3.53;;;21.60;27.70;;;;;;2259915;61;20392;-66
2024/02/03 17:52:15;0.00;0.00;0.62;0.00;0.00;0.62;4.80;3.77;;;21.70;27.80;;;;;;2259462;61;20384;-65
2024/02/03 17:55:00;0.00;0.00;0.62;0.00;0.00;0.62;6.07;3.43;;;21.70;27.80;;;;;;2256723;61;20469;-65
2024/02/03 17:57:45;0.00;0.00;0.62;0.00;0.00;0.62;4.20;3.17;;;21.60;27.80;;;;;;2259743;61;20446;-66
2024/02/03 18:00:31;0.00;0.00;0.62;0.00;0.00;0.62;4.97;2.80;;;21.70;27.80;;;;;;2259604;61;20799;-65
2024/02/03 18:03:16;0.00;0.00;0.62;0.00;0.00;0.62;4.20;2.70;;;21.70;27.80;;;;;;2259656;61;21192;-65
2024/02/03 18:06:01;0.00;0.00;0.62;0.00;0.00;0.62;4.50;3.10;;;21.70;27.80;;;;;;2259726;61;20839;-66
2024/02/03 18:08:47;0.00;0.00;0.62;0.00;0.00;0.62;4.90;3.50;;;21.70;27.80;;;;;;2259645;61;20450;-65
2024/02/03 18:11:35;0.00;0.00;0.62;0.00;0.00;0.62;5.60;3.60;;;21.70;27.80;;;;;;2259956;61;20753;-66
2024/02/03 18:14:21;0.00;0.00;0.62;0.00;0.00;0.62;4.80;3.10;;;21.70;27.80;;;;;;2259255;61;20423;-66
2024/02/03 18:17:07;0.00;0.00;0.62;0.00;0.00;0.62;3.30;2.70;;;21.70;27.80;;;;;;2259958;61;20929;-66
2024/02/03 18:19:52;0.00;0.00;0.62;0.00;0.00;0.62;4.30;3.10;;;21.70;27.80;;;;;;2259880;61;20369;-66
2024/02/03 18:22:37;0.00;0.00;0.62;0.00;0.00;0.62;5.60;2.90;;;21.70;27.80;;;;;;2261462;61;20364;-66
2024/02/03 18:25:23;0.00;0.00;0.62;0.00;0.00;0.62;3.63;2.47;;;21.70;27.80;;;;;;2260759;61;20837;-66
2024/02/03 18:28:08;0.00;0.00;0.62;0.00;0.00;0.62;3.93;2.97;;;21.70;27.80;;;;;;2263675;61;20368;-66
2024/02/03 18:30:54;0.00;0.00;0.62;0.00;0.00;0.62;3.07;2.50;;;21.70;27.80;;;;;;2263740;61;20844;-66
2024/02/03 18:33:43;0.00;0.00;0.62;0.00;0.00;0.62;4.43;3.10;;;21.70;27.80;;;;;;2263660;61;20356;-66
2024/02/03 18:36:28;0.00;0.00;0.62;0.00;0.00;0.62;3.90;3.10;;;21.70;27.80;;;;;;2263291;61;20415;-65
2024/02/03 18:39:13;0.00;0.00;0.62;0.00;0.00;0.62;4.30;2.80;;;21.70;27.80;;;;;;2263917;61;20365;-65
2024/02/03 18:41:57;0.00;0.00;0.62;0.00;0.00;0.62;4.87;2.97;;;21.70;27.80;;;;;;2263454;61;20790;-65
2024/02/03 18:44:42;0.00;0.00;0.62;0.00;0.00;0.62;4.20;2.80;;;21.70;27.80;;;;;;2261558;61;20485;-65
2024/02/03 18:47:27;0.00;0.00;0.62;0.00;0.00;0.62;3.97;2.70;;;21.70;27.80;;;;;;2259826;61;20411;-65
2024/02/03 18:50:12;0.00;0.00;0.62;0.00;0.00;0.62;4.60;2.77;;;21.70;27.80;;;;;;2259408;61;21010;-67
2024/02/03 18:52:57;0.00;0.00;0.62;0.00;0.00;0.62;4.40;3.20;;;21.70;27.80;;;;;;2259380;61;20775;-65
2024/02/03 18:55:45;0.00;0.00;0.62;0.00;0.00;0.62;3.90;2.50;;;21.70;27.80;;;;;;2259796;61;20396;-66
2024/02/03 18:58:29;0.00;0.00;0.62;0.00;0.00;0.62;4.63;3.27;;;21.70;27.80;;;;;;2259267;61;20411;-66
2024/02/03 19:01:14;0.00;0.00;0.62;0.00;0.00;0.62;4.13;3.00;;;21.70;27.80;;;;;;2263832;61;20956;-66
2024/02/03 19:03:59;0.00;0.00;0.62;0.00;0.00;0.62;3.30;2.60;;;21.70;27.80;;;;;;2263337;61;20942;-66
2024/02/03 19:06:45;0.00;0.00;0.62;0.00;0.00;0.62;4.90;3.30;;;21.70;27.80;;;;;;2260130;61;20410;-66
2024/02/03 19:09:32;0.00;0.00;0.62;0.00;0.00;0.62;4.83;3.43;;;21.80;27.90;;;;;;2263792;61;20368;-66
2024/02/03 19:12:17;0.00;0.00;0.62;0.00;0.00;0.62;3.20;2.50;;;21.80;27.90;;;;;;2263731;61;20367;-66
2024/02/03 19:15:02;0.00;0.00;0.62;0.00;0.00;0.62;5.23;3.23;;;21.80;27.90;;;;;;2260095;61;20923;-66
2024/02/03 19:17:47;0.00;0.00;0.62;0.00;0.00;0.62;4.90;3.40;;;21.70;27.80;;;;;;2259775;61;20416;-66
2024/02/03 19:20:31;0.00;0.00;0.62;0.00;0.00;0.62;4.00;2.70;;;21.80;27.90;;;;;;2256226;61;20364;-65
2024/02/03 19:23:19;0.00;0.00;0.62;0.00;0.00;0.62;3.53;2.57;;;21.80;27.90;;;;;;2525331;53;20476;-66
2024/02/03 19:26:04;0.00;0.00;0.62;0.00;0.00;0.62;3.30;2.40;;;21.80;27.90;;;;;;2259686;61;20388;-66
2024/02/03 19:28:49;0.00;0.00;0.62;0.00;0.00;0.62;4.57;2.97;;;21.80;27.90;;;;;;2259322;61;20365;-65
2024/02/03 19:31:34;0.00;0.00;0.62;0.00;0.00;0.62;3.30;2.50;;;21.80;27.90;;;;;;2259788;61;20387;-66
2024/02/03 19:34:18;0.00;0.00;0.62;0.00;0.00;0.62;3.93;2.77;;;21.80;27.80;;;;;;2259876;61;20927;-66
2024/02/03 19:37:03;0.00;0.00;0.62;0.00;0.00;0.62;3.03;2.57;;;21.80;27.80;;;;;;2260079;61;20369;-66
2024/02/03 19:39:49;0.00;0.00;0.62;0.00;0.00;0.62;3.60;2.70;;;21.80;27.90;;;;;;2260432;61;20367;-66
2024/02/03 19:42:34;0.00;0.00;0.62;0.00;0.00;0.62;3.33;2.60;;;21.80;27.80;;;;;;2259833;61;20393;-66
2024/02/03 19:45:19;0.00;0.00;0.62;0.00;0.00;0.62;3.90;2.87;;;21.80;27.80;;;;;;2643010;45;20435;-66
2024/02/03 19:48:04;0.00;0.00;0.62;0.00;0.00;0.62;3.37;2.20;;;21.80;27.80;;;;;;2260307;61;20503;-66
2024/02/03 19:50:49;0.00;0.00;0.62;0.00;0.00;0.62;3.60;2.70;;;21.80;27.80;;;;;;2261113;61;20399;-66
2024/02/03 19:53:33;0.00;0.00;0.62;0.00;0.00;0.62;3.37;2.43;;;21.80;27.80;;;;;;2264228;61;20355;-65
2024/02/03 19:56:20;0.00;0.00;0.62;0.00;0.00;0.62;3.57;2.40;;;21.80;27.80;;;;;;2264206;61;20446;-65
2024/02/03 19:59:04;0.00;0.00;0.62;0.00;0.00;0.62;2.90;2.23;;;21.80;27.80;;;;;;2264077;61;20376;-65
2024/02/03 20:01:49;0.00;0.00;0.62;0.00;0.00;0.62;3.07;2.17;;;21.80;27.80;;;;;;2264362;61;20414;-65
2024/02/03 20:04:33;0.00;0.00;0.62;0.00;0.00;0.62;3.47;2.43;;;21.80;27.70;;;;;;2263841;61;20391;-65
2024/02/03 20:07:18;0.00;0.00;0.62;0.00;0.00;0.62;3.20;2.30;;;21.80;27.80;;;;;;2263960;61;20410;-65
2024/02/03 20:10:06;0.00;0.00;0.62;0.00;0.00;0.62;3.00;2.47;;;21.80;27.80;;;;;;2264317;61;20795;-65
2024/02/03 20:12:52;0.00;0.00;0.62;0.00;0.00;0.62;2.90;2.27;;;21.80;27.70;;;;;;2260515;61;20368;-65
2024/02/03 20:15:36;0.00;0.00;0.62;0.00;0.00;0.62;2.93;2.27;;;21.80;28.20;;;;;;2264180;61;20383;-65
2024/02/03 20:18:21;0.00;0.00;0.62;0.00;0.00;0.62;3.63;2.40;;;21.80;27.70;;;;;;2264114;61;20399;-66
2024/02/03 20:21:05;0.00;0.00;0.62;0.00;0.00;0.62;3.73;2.27;;;21.80;27.70;;;;;;2260412;61;20821;-65
2024/02/03 20:23:50;0.00;0.00;0.62;0.00;0.00;0.62;4.83;2.50;;;21.80;27.70;;;;;;2260569;61;20384;-65
2024/02/03 20:26:35;0.00;0.00;0.62;0.00;0.00;0.62;3.70;2.67;;;21.80;27.70;;;;;;2260640;61;20418;-65
2024/02/03 20:29:21;0.00;0.00;0.62;0.00;0.00;0.62;2.80;2.43;;;21.90;27.70;;;;;;2263905;61;20368;-65
2024/02/03 20:32:05;0.00;0.00;0.62;0.00;0.00;0.62;3.17;2.57;;;21.90;27.70;;;;;;2260794;61;20364;-66
2024/02/03 20:34:50;0.00;0.00;0.62;0.00;0.00;0.62;2.40;2.10;;;21.90;27.70;;;;;;2263728;61;20376;-66
2024/02/03 20:37:35;0.00;0.00;0.62;0.00;0.00;0.62;3.57;2.43;;;21.90;27.70;;;;;;2264392;61;20915;-66
2024/02/03 20:40:19;0.00;0.00;0.62;0.00;0.00;0.62;3.63;2.23;;;21.90;28.20;;;;;;2264169;61;20387;-65
2024/02/03 20:43:04;0.00;0.00;0.62;0.00;0.00;0.62;4.70;2.30;;;21.90;27.70;;;;;;2263566;61;20392;-65
2024/02/03 20:45:53;0.00;0.00;0.62;0.00;0.00;0.62;2.90;2.00;;;21.90;27.70;;;;;;2264098;61;20435;-66
2024/02/03 20:48:38;0.00;0.00;0.62;0.00;0.00;0.62;3.43;2.23;;;21.90;27.70;;;;;;2263742;61;20422;-65
2024/02/03 20:51:22;0.00;0.00;0.62;0.00;0.00;0.62;2.70;2.17;;;21.90;27.70;;;;;;2264116;61;20899;-66
2024/02/03 20:54:07;0.00;0.00;0.62;0.00;0.00;0.62;2.87;2.30;;;21.90;27.70;;;;;;2263906;61;20383;-66
2024/02/03 20:56:52;0.00;0.00;0.62;0.00;0.00;0.62;3.73;2.40;;;21.90;27.60;;;;;;2263410;61;20826;-65
2024/02/03 20:59:37;0.00;0.00;0.62;0.00;0.00;0.62;2.93;2.23;;;21.90;27.60;;;;;;2260276;61;20411;-65
2024/02/03 21:02:22;0.00;0.00;0.62;0.00;0.00;0.62;3.80;2.50;;;21.90;27.60;;;;;;2259917;61;20389;-65
2024/02/03 21:05:07;0.00;0.00;0.62;0.00;0.00;0.62;3.40;2.27;;;21.90;28.10;;;;;;2259696;61;20440;-65
2024/02/03 21:07:52;0.00;0.00;0.62;0.00;0.00;0.62;3.50;2.17;;;21.90;27.60;;;;;;2260156;61;20420;-66
2024/02/03 21:10:37;0.00;0.00;0.62;0.00;0.00;0.62;3.83;2.10;;;21.90;27.50;;;;;;2259801;61;20399;-66
2024/02/03 21:13:21;0.00;0.00;0.62;0.00;0.00;0.62;2.50;1.77;;;21.90;27.50;;;;;;2262854;61;20621;-66
2024/02/03 21:16:07;0.00;0.00;0.62;0.00;0.00;0.62;2.63;2.00;;;21.90;27.50;;;;;;2263981;61;20380;-65
2024/02/03 21:18:52;0.00;0.00;0.62;0.00;0.00;0.62;2.93;1.90;;;21.90;27.50;;;;;;2263931;61;20922;-65
2024/02/03 21:21:40;0.00;0.00;0.62;0.00;0.00;0.62;3.73;1.73;;;21.90;27.50;;;;;;2501468;53;20523;-65
2024/02/03 21:24:24;0.00;0.00;0.62;0.00;0.00;0.62;3.37;1.70;;;21.90;27.50;;;;;;2264058;61;20422;-65
2024/02/03 21:27:10;0.00;0.00;0.62;0.00;0.00;0.62;2.73;1.93;;;21.90;27.50;;;;;;2262829;61;20907;-65
2024/02/03 21:29:54;0.00;0.00;0.62;0.00;0.00;0.62;2.47;1.97;;;21.90;27.50;;;;;;2264001;61;20396;-65
2024/02/03 21:32:39;0.00;0.00;0.62;0.00;0.00;0.62;2.53;1.80;;;21.90;27.40;;;;;;2263724;61;20360;-65
2024/02/03 21:35:25;0.00;0.00;0.62;0.00;0.00;0.62;3.03;1.90;;;21.90;27.40;;;;;;2261022;61;21010;-65
2024/02/03 21:38:09;0.00;0.00;0.62;0.00;0.00;0.62;2.87;2.00;;;21.90;27.40;;;;;;2259926;61;20373;-66
2024/02/03 21:40:54;0.00;0.00;0.62;0.00;0.00;0.62;3.57;2.80;;;21.90;27.40;;;;;;2256424;61;20372;-65
2024/02/03 21:43:38;0.00;0.00;0.62;0.00;0.00;0.62;3.00;2.27;;;21.90;27.40;;;;;;2682473;45;20411;-66
2024/02/03 21:46:23;0.00;0.00;0.62;0.00;0.00;0.62;2.70;2.40;;;21.90;27.40;;;;;;2260228;61;20389;-66
2024/02/03 21:49:07;0.00;0.00;0.62;0.00;0.00;0.62;4.83;2.80;;;21.90;27.40;;;;;;2260366;61;20403;-66
2024/02/03 21:51:53;0.00;0.00;0.62;0.00;0.00;0.62;4.83;3.20;;;21.90;27.40;;;;;;2264091;61;20364;-65
2024/02/03 21:54:38;0.00;0.00;0.62;0.00;0.00;0.62;3.13;2.50;;;21.90;27.40;;;;;;2263555;61;20392;-66
2024/02/03 21:57:22;0.00;0.00;0.62;0.00;0.00;0.62;3.40;2.20;;;21.90;27.40;;;;;;2260995;61;20408;-66
2024/02/03 22:00:10;0.00;0.00;0.62;0.00;0.00;0.62;4.40;2.90;;;21.90;27.40;;;;;;2256720;61;20369;-66
2024/02/03 22:02:56;0.00;0.00;0.62;0.00;0.00;0.62;4.00;2.30;;;21.90;27.40;;;;;;2259371;61;20471;-65
2024/02/03 22:05:41;0.00;0.00;0.62;0.00;0.00;0.62;4.37;2.70;;;21.90;27.30;;;;;;2259631;61;20416;-65
2024/02/03 22:08:28;0.00;0.00;0.62;0.00;0.00;0.62;3.30;2.50;;;21.90;27.30;;;;;;2259913;61;20365;-66
2024/02/03 22:11:13;0.00;0.00;0.62;0.00;0.00;0.62;4.33;2.87;;;21.90;27.30;;;;;;2259402;61;20412;-65
2024/02/03 22:13:57;0.00;0.00;0.62;0.00;0.00;0.62;4.47;3.47;;;22.00;27.40;;;;;;2256599;61;20380;-66